createdAt,value
2019-03-30T00:00:31.452Z,0.60
2019-03-30T00:02:59.879Z,0.60
2019-03-30T00:05:28.363Z,0.70
2019-03-30T00:07:56.787Z,0.60
2019-03-30T00:10:25.306Z,0.50
2019-03-30T00:12:53.754Z,0.50
2019-03-30T00:15:22.240Z,0.40
2019-03-30T00:17:50.703Z,0.30
2019-03-30T00:20:19.390Z,0.20
2019-03-30T00:22:47.854Z,0.20
2019-03-30T00:25:16.407Z,0.10
2019-03-30T00:27:44.853Z,0.10
2019-03-30T00:30:13.434Z,0.00
2019-03-30T00:32:41.915Z,0.00
2019-03-30T00:35:10.397Z,0.00
2019-03-30T00:37:38.818Z,0.00
2019-03-30T00:40:07.376Z,-0.10
2019-03-30T00:42:35.906Z,0.00
2019-03-30T00:45:06.284Z,0.00
2019-03-30T00:47:34.701Z,-0.10
2019-03-30T00:50:03.505Z,0.00
2019-03-30T00:52:31.961Z,-0.10
2019-03-30T00:55:00.432Z,-0.10
2019-03-30T00:57:28.905Z,-0.20
2019-03-30T00:59:57.379Z,-0.10
2019-03-30T01:02:25.832Z,-0.20
2019-03-30T01:04:54.261Z,-0.10
2019-03-30T01:07:22.722Z,-0.10
2019-03-30T01:09:51.182Z,0.00
2019-03-30T01:12:19.630Z,0.00
2019-03-30T01:14:48.067Z,0.00
2019-03-30T01:17:16.542Z,-0.10
2019-03-30T01:19:45.008Z,-0.10
2019-03-30T01:22:13.538Z,-0.20
2019-03-30T01:24:42.002Z,-0.30
2019-03-30T01:27:10.458Z,-0.30
2019-03-30T01:29:38.913Z,-0.30
2019-03-30T01:32:07.369Z,-0.40
2019-03-30T01:34:35.805Z,-0.40
2019-03-30T01:37:04.272Z,-0.40
2019-03-30T01:39:32.737Z,-0.40
2019-03-30T01:42:02.455Z,-0.40
2019-03-30T01:44:30.914Z,-0.40
2019-03-30T01:46:59.387Z,-0.50
2019-03-30T01:49:27.913Z,-0.50
2019-03-30T01:51:56.447Z,-0.50
2019-03-30T01:54:24.937Z,-0.50
2019-03-30T01:56:53.489Z,-0.50
2019-03-30T01:59:21.955Z,-0.50
2019-03-30T02:01:50.410Z,-0.50
2019-03-30T02:04:18.843Z,-0.50
2019-03-30T02:06:47.301Z,-0.50
2019-03-30T02:09:15.802Z,-0.40
2019-03-30T02:11:44.262Z,-0.40
2019-03-30T02:14:12.775Z,-0.30
2019-03-30T02:16:41.229Z,-0.30
2019-03-30T02:19:09.705Z,-0.20
2019-03-30T02:21:38.165Z,-0.20
2019-03-30T02:24:06.729Z,-0.20
2019-03-30T02:26:35.196Z,-0.20
2019-03-30T02:29:03.645Z,-0.20
2019-03-30T02:31:32.200Z,-0.30
2019-03-30T02:34:02.231Z,-0.30
2019-03-30T02:36:30.722Z,-0.30
2019-03-30T02:38:59.186Z,-0.30
2019-03-30T02:41:27.665Z,-0.30
2019-03-30T02:43:56.201Z,-0.30
2019-03-30T02:46:24.637Z,-0.30
2019-03-30T02:48:53.114Z,-0.40
2019-03-30T02:51:21.590Z,-0.40
2019-03-30T02:53:50.162Z,-0.40
2019-03-30T02:56:18.720Z,-0.40
2019-03-30T02:58:47.179Z,-0.40
2019-03-30T03:01:15.733Z,-0.40
2019-03-30T03:03:44.250Z,-0.50
2019-03-30T03:06:12.711Z,-0.50
2019-03-30T03:08:41.285Z,-0.50
2019-03-30T03:11:09.793Z,-0.50
2019-03-30T03:13:38.235Z,-0.60
2019-03-30T03:16:06.704Z,-0.60
2019-03-30T03:18:35.202Z,-0.60
2019-03-30T03:21:07.913Z,-0.60
2019-03-30T03:23:33.909Z,-0.60
2019-03-30T03:26:02.402Z,-0.60
2019-03-30T03:28:30.939Z,-0.50
2019-03-30T03:30:59.493Z,-0.50
2019-03-30T03:33:28.005Z,-0.60
2019-03-30T03:35:56.563Z,-0.60
2019-03-30T03:38:25.028Z,-0.70
2019-03-30T03:40:53.482Z,-0.60
2019-03-30T03:43:21.920Z,-0.60
2019-03-30T03:45:50.370Z,-0.70
2019-03-30T03:48:18.825Z,-0.70
2019-03-30T03:50:49.354Z,-0.80
2019-03-30T03:53:17.942Z,-0.80
2019-03-30T03:55:46.566Z,-0.90
2019-03-30T03:58:16.852Z,-0.90
2019-03-30T04:00:46.153Z,-0.90
2019-03-30T04:03:16.890Z,-0.90
2019-03-30T04:05:46.717Z,-0.90
2019-03-30T04:08:15.275Z,-1.00
2019-03-30T04:10:46.975Z,-1.00
2019-03-30T04:13:16.687Z,-0.90
2019-03-30T04:15:45.119Z,-0.80
2019-03-30T04:18:13.770Z,-0.80
2019-03-30T04:20:42.232Z,-0.80
2019-03-30T04:23:10.777Z,-0.80
2019-03-30T04:25:39.214Z,-0.90
2019-03-30T04:28:07.680Z,-1.00
2019-03-30T04:30:36.136Z,-1.10
2019-03-30T04:33:04.595Z,-1.10
2019-03-30T04:35:33.026Z,-1.10
2019-03-30T04:38:03.110Z,-1.10
2019-03-30T04:40:31.575Z,-1.20
2019-03-30T04:43:00.025Z,-1.10
2019-03-30T04:45:28.544Z,-1.00
2019-03-30T04:47:57.005Z,-0.90
2019-03-30T04:50:25.581Z,-0.90
2019-03-30T04:52:54.016Z,-0.90
2019-03-30T04:55:22.470Z,-1.00
2019-03-30T04:57:50.916Z,-1.10
2019-03-30T05:00:19.451Z,-1.10
2019-03-30T05:02:47.910Z,-1.10
2019-03-30T05:05:16.338Z,-1.10
2019-03-30T05:07:44.802Z,-1.00
2019-03-30T05:10:13.301Z,-1.00
2019-03-30T05:12:41.769Z,-0.90
2019-03-30T05:15:10.355Z,-0.80
2019-03-30T05:17:58.214Z,-0.70
2019-03-30T05:20:26.679Z,-0.70
2019-03-30T05:22:55.133Z,-0.60
2019-03-30T05:25:23.613Z,-0.60
2019-03-30T05:27:52.042Z,-0.60
2019-03-30T05:30:20.527Z,-0.60
2019-03-30T05:32:48.978Z,-0.60
2019-03-30T05:35:17.514Z,-0.60
2019-03-30T05:37:45.998Z,-0.50
2019-03-30T05:40:14.667Z,-0.40
2019-03-30T05:42:43.122Z,-0.30
2019-03-30T05:45:11.749Z,-0.20
2019-03-30T05:47:40.214Z,0.10
2019-03-30T05:50:08.747Z,0.80
2019-03-30T05:52:37.204Z,1.90
2019-03-30T05:55:05.899Z,3.30
2019-03-30T05:57:34.439Z,3.90
2019-03-30T06:00:03.306Z,4.90
2019-03-30T06:02:31.766Z,5.70
2019-03-30T06:05:03.149Z,6.20
2019-03-30T06:07:30.396Z,6.50
2019-03-30T06:09:58.883Z,6.80
2019-03-30T06:12:27.340Z,6.80
2019-03-30T06:14:55.803Z,6.90
2019-03-30T06:17:24.255Z,7.30
2019-03-30T06:19:52.752Z,8.20
2019-03-30T06:22:21.207Z,9.10
2019-03-30T06:24:49.667Z,10.00
2019-03-30T06:27:18.134Z,10.70
2019-03-30T06:30:05.801Z,10.60
2019-03-30T06:32:34.269Z,10.70
2019-03-30T06:35:02.705Z,11.20
2019-03-30T06:37:31.446Z,12.10
2019-03-30T06:39:59.901Z,12.40
2019-03-30T06:42:28.342Z,13.00
2019-03-30T06:44:56.789Z,13.40
2019-03-30T06:47:25.259Z,13.20
2019-03-30T06:49:53.797Z,13.60
2019-03-30T06:52:22.253Z,13.30
2019-03-30T06:54:50.715Z,13.60
2019-03-30T06:57:19.178Z,14.10
2019-03-30T06:59:47.640Z,14.70
2019-03-30T07:02:16.366Z,15.20
2019-03-30T07:04:45.243Z,15.30
2019-03-30T07:07:14.330Z,15.60
2019-03-30T07:09:45.044Z,16.10
2019-03-30T07:12:14.715Z,16.30
2019-03-30T07:14:45.982Z,16.50
2019-03-30T07:17:14.921Z,15.90
2019-03-30T07:19:45.171Z,16.30
2019-03-30T07:22:13.659Z,17.00
2019-03-30T07:24:42.152Z,17.50
2019-03-30T07:27:10.577Z,17.90
2019-03-30T07:29:39.045Z,18.40
2019-03-30T07:32:07.534Z,18.60
2019-03-30T07:34:36.027Z,18.80
2019-03-30T07:37:04.548Z,19.20
2019-03-30T07:39:33.078Z,19.50
2019-03-30T07:42:02.280Z,19.40
2019-03-30T07:44:30.777Z,19.50
2019-03-30T07:46:59.250Z,19.10
2019-03-30T07:49:27.725Z,19.50
2019-03-30T07:51:56.172Z,20.00
2019-03-30T07:54:24.647Z,20.10
2019-03-30T07:57:04.148Z,20.00
2019-03-30T07:59:23.283Z,20.20
2019-03-30T08:01:51.714Z,20.00
2019-03-30T08:04:20.183Z,18.80
2019-03-30T08:06:48.670Z,19.50
2019-03-30T08:09:17.131Z,20.50
2019-03-30T08:11:45.657Z,21.10
2019-03-30T08:14:14.157Z,21.40
2019-03-30T08:16:42.617Z,21.20
2019-03-30T08:19:11.081Z,21.50
2019-03-30T08:21:39.521Z,21.30
2019-03-30T08:24:08.009Z,20.90
2019-03-30T08:26:36.478Z,20.50
2019-03-30T08:29:05.882Z,20.50
2019-03-30T08:31:34.462Z,19.80
2019-03-30T08:34:02.894Z,20.40
2019-03-30T08:36:31.354Z,21.20
2019-03-30T08:38:59.818Z,21.40
2019-03-30T08:41:28.359Z,19.90
2019-03-30T08:43:56.860Z,18.60
2019-03-30T08:46:25.425Z,17.00
2019-03-30T08:48:53.967Z,16.00
2019-03-30T08:51:22.584Z,15.30
2019-03-30T08:53:54.694Z,15.00
2019-03-30T08:56:21.248Z,14.60
2019-03-30T08:58:49.751Z,14.20
2019-03-30T09:01:18.229Z,14.10
2019-03-30T09:03:46.796Z,14.20
2019-03-30T09:06:15.287Z,13.90
2019-03-30T09:08:43.722Z,13.60
2019-03-30T09:11:12.216Z,13.60
2019-03-30T09:13:40.649Z,13.40
2019-03-30T09:16:09.110Z,13.50
2019-03-30T09:18:37.550Z,13.60
2019-03-30T09:21:06.025Z,13.60
2019-03-30T09:23:34.466Z,13.60
2019-03-30T09:26:03.033Z,13.50
2019-03-30T09:28:31.514Z,13.50
2019-03-30T09:30:59.952Z,13.40
2019-03-30T09:33:28.429Z,13.30
2019-03-30T09:35:57.042Z,13.20
2019-03-30T09:38:25.522Z,13.20
2019-03-30T09:40:54.021Z,12.90
2019-03-30T09:43:22.490Z,13.00
2019-03-30T09:45:50.963Z,13.10
2019-03-30T09:48:19.445Z,13.20
2019-03-30T09:50:47.993Z,13.00
2019-03-30T09:53:16.445Z,12.90
2019-03-30T09:55:44.904Z,13.00
2019-03-30T09:58:13.358Z,13.20
2019-03-30T10:00:41.839Z,13.10
2019-03-30T10:03:10.423Z,13.10
2019-03-30T10:05:38.960Z,13.20
2019-03-30T10:08:07.478Z,13.20
2019-03-30T10:10:36.076Z,13.10
2019-03-30T10:13:04.571Z,13.10
2019-03-30T10:15:33.043Z,13.00
2019-03-30T10:18:01.478Z,12.90
2019-03-30T10:20:29.961Z,12.90
2019-03-30T10:22:58.434Z,13.10
2019-03-30T10:25:26.894Z,13.00
2019-03-30T10:27:55.322Z,13.00
2019-03-30T10:30:23.821Z,12.80
2019-03-30T10:32:52.256Z,12.70
2019-03-30T10:35:20.739Z,12.80
2019-03-30T10:37:49.210Z,12.80
2019-03-30T10:40:20.690Z,12.90
2019-03-30T10:42:47.969Z,12.80
2019-03-30T10:45:16.527Z,12.90
2019-03-30T10:47:44.986Z,13.10
2019-03-30T10:50:13.592Z,13.10
2019-03-30T10:52:42.128Z,13.20
2019-03-30T10:55:10.728Z,13.30
2019-03-30T10:57:39.195Z,13.30
2019-03-30T11:00:09.433Z,13.30
2019-03-30T11:02:39.465Z,13.40
2019-03-30T11:05:08.211Z,13.30
2019-03-30T11:07:36.771Z,13.30
2019-03-30T11:10:07.881Z,13.30
2019-03-30T11:12:36.339Z,13.30
2019-03-30T11:15:06.239Z,13.40
2019-03-30T11:17:34.694Z,13.30
2019-03-30T11:20:03.154Z,13.50
2019-03-30T11:22:31.598Z,13.70
2019-03-30T11:25:07.802Z,13.80
2019-03-30T11:27:31.789Z,13.60
2019-03-30T11:30:00.360Z,13.50
2019-03-30T11:32:28.911Z,13.50
2019-03-30T11:34:57.436Z,13.50
2019-03-30T11:37:25.962Z,13.70
2019-03-30T11:39:54.407Z,13.70
2019-03-30T11:42:22.829Z,13.70
2019-03-30T11:44:51.309Z,13.60
2019-03-30T11:47:19.812Z,13.70
2019-03-30T11:49:48.262Z,13.80
2019-03-30T11:52:16.691Z,14.00
2019-03-30T11:54:45.174Z,14.10
2019-03-30T11:57:13.651Z,14.20
2019-03-30T11:59:42.210Z,14.20
2019-03-30T12:02:10.690Z,14.20
2019-03-30T12:04:39.151Z,14.20
2019-03-30T12:07:07.719Z,14.10
2019-03-30T12:09:36.182Z,14.10
2019-03-30T12:12:04.760Z,14.00
2019-03-30T12:14:33.282Z,14.10
2019-03-30T12:17:01.750Z,14.10
2019-03-30T12:19:30.194Z,14.20
2019-03-30T12:21:58.683Z,14.00
2019-03-30T12:24:27.128Z,14.10
2019-03-30T12:26:55.730Z,14.00
2019-03-30T12:29:24.206Z,14.10
2019-03-30T12:31:52.661Z,14.10
2019-03-30T12:34:21.091Z,14.20
2019-03-30T12:36:49.561Z,14.30
2019-03-30T12:39:18.031Z,14.30
2019-03-30T12:41:46.468Z,14.30
2019-03-30T12:44:14.917Z,14.30
2019-03-30T12:46:43.423Z,14.40
2019-03-30T12:49:11.899Z,14.40
2019-03-30T12:51:40.457Z,14.30
2019-03-30T12:54:08.930Z,14.20
2019-03-30T12:56:37.422Z,14.40
2019-03-30T12:59:05.964Z,14.60
2019-03-30T13:01:34.541Z,14.70
2019-03-30T13:04:03.069Z,14.70
2019-03-30T13:06:31.552Z,14.70
2019-03-30T13:09:00.169Z,14.70
2019-03-30T13:11:28.638Z,14.60
2019-03-30T13:13:57.147Z,14.40
2019-03-30T13:16:26.448Z,14.50
2019-03-30T13:18:55.097Z,14.50
2019-03-30T13:21:23.631Z,14.70
2019-03-30T13:23:52.189Z,14.70
2019-03-30T13:26:21.657Z,14.60
2019-03-30T13:28:50.106Z,14.60
2019-03-30T13:31:18.578Z,14.70
2019-03-30T13:33:47.079Z,14.70
2019-03-30T13:36:15.638Z,14.80
2019-03-30T13:38:44.146Z,14.80
2019-03-30T13:41:14.282Z,14.70
2019-03-30T13:43:42.789Z,14.60
2019-03-30T13:46:11.447Z,14.70
2019-03-30T13:48:39.891Z,14.70
2019-03-30T13:51:08.343Z,14.60
2019-03-30T13:53:36.850Z,14.70
2019-03-30T13:56:16.499Z,14.70
2019-03-30T13:58:36.701Z,14.80
2019-03-30T14:01:05.372Z,15.00
2019-03-30T14:03:33.879Z,15.00
2019-03-30T14:06:02.465Z,15.00
2019-03-30T14:08:30.993Z,15.00
2019-03-30T14:10:59.469Z,15.00
2019-03-30T14:13:27.910Z,15.00
2019-03-30T14:15:56.402Z,15.00
2019-03-30T14:18:24.956Z,15.00
2019-03-30T14:20:53.410Z,14.90
2019-03-30T14:23:21.944Z,14.90
2019-03-30T14:25:50.400Z,15.00
2019-03-30T14:28:18.914Z,15.00
2019-03-30T14:30:47.468Z,15.00
2019-03-30T14:33:16.031Z,14.90
2019-03-30T14:35:44.529Z,14.80
2019-03-30T14:38:13.093Z,14.70
2019-03-30T14:40:41.563Z,14.80
2019-03-30T14:43:10.000Z,14.70
2019-03-30T14:45:38.474Z,14.70
2019-03-30T14:48:06.902Z,14.80
2019-03-30T14:50:35.375Z,14.90
2019-03-30T14:53:03.915Z,15.00
2019-03-30T14:55:32.440Z,15.00
2019-03-30T14:58:00.877Z,15.00
2019-03-30T15:00:29.481Z,15.00
2019-03-30T15:02:58.215Z,15.10
2019-03-30T15:05:26.647Z,15.10
2019-03-30T15:07:55.119Z,15.10
2019-03-30T15:10:23.590Z,15.10
2019-03-30T15:12:52.074Z,15.10
2019-03-30T15:15:20.581Z,15.00
2019-03-30T15:17:49.084Z,15.00
2019-03-30T15:20:17.688Z,15.00
2019-03-30T15:22:46.121Z,15.00
2019-03-30T15:25:14.742Z,15.10
2019-03-30T15:27:43.226Z,15.20
2019-03-30T15:30:12.863Z,15.10
2019-03-30T15:32:41.352Z,15.00
2019-03-30T15:35:10.170Z,14.90
2019-03-30T15:37:39.357Z,14.80
2019-03-30T15:40:08.448Z,14.70
2019-03-30T15:42:39.928Z,14.60
2019-03-30T15:45:09.299Z,14.60
2019-03-30T15:47:37.944Z,14.60
2019-03-30T15:50:08.657Z,14.70
2019-03-30T15:52:37.157Z,14.80
2019-03-30T15:55:06.666Z,14.80
2019-03-30T15:57:36.050Z,14.70
2019-03-30T16:00:09.590Z,14.70
2019-03-30T16:02:38.213Z,14.70
2019-03-30T16:05:07.276Z,14.60
2019-03-30T16:07:35.873Z,14.50
2019-03-30T16:10:05.527Z,14.30
2019-03-30T16:12:34.086Z,14.40
2019-03-30T16:15:05.821Z,14.30
2019-03-30T16:17:34.347Z,14.40
2019-03-30T16:20:03.701Z,14.30
2019-03-30T16:22:32.212Z,14.30
2019-03-30T16:25:01.939Z,14.20
2019-03-30T16:27:30.451Z,14.20
2019-03-30T16:29:59.001Z,14.20
2019-03-30T16:32:27.642Z,14.10
2019-03-30T16:34:56.104Z,14.00
2019-03-30T16:37:24.644Z,13.80
2019-03-30T16:39:53.163Z,13.80
2019-03-30T16:42:21.672Z,13.60
2019-03-30T16:44:50.137Z,13.60
2019-03-30T16:47:18.575Z,13.60
2019-03-30T16:49:47.087Z,13.50
2019-03-30T16:52:15.630Z,13.40
2019-03-30T16:54:44.067Z,13.40
2019-03-30T16:57:12.593Z,13.30
2019-03-30T16:59:41.105Z,13.20
2019-03-30T17:02:09.578Z,13.20
2019-03-30T17:04:38.173Z,13.20
2019-03-30T17:07:06.661Z,13.10
2019-03-30T17:09:35.382Z,12.90
2019-03-30T17:12:03.988Z,12.70
2019-03-30T17:14:32.506Z,12.60
2019-03-30T17:17:01.400Z,12.30
2019-03-30T17:19:30.197Z,12.20
2019-03-30T17:21:58.788Z,12.10
2019-03-30T17:24:27.440Z,12.10
2019-03-30T17:26:56.153Z,11.90
2019-03-30T17:29:24.746Z,11.60
2019-03-30T17:31:53.288Z,11.40
2019-03-30T17:34:21.973Z,11.30
2019-03-30T17:36:50.432Z,11.00
2019-03-30T17:39:19.071Z,10.80
2019-03-30T17:41:47.531Z,10.60
2019-03-30T17:44:16.154Z,10.40
2019-03-30T17:46:44.751Z,10.20
2019-03-30T17:49:13.284Z,10.10
2019-03-30T17:51:41.863Z,9.90
2019-03-30T17:54:10.387Z,9.70
2019-03-30T17:56:38.839Z,9.60
2019-03-30T17:59:07.338Z,9.50
2019-03-30T18:01:35.896Z,9.30
2019-03-30T18:04:04.354Z,9.20
2019-03-30T18:06:33.048Z,9.10
2019-03-30T18:09:02.557Z,9.00
2019-03-30T18:11:31.191Z,8.80
2019-03-30T18:13:59.705Z,8.60
2019-03-30T18:16:28.182Z,8.50
2019-03-30T18:18:56.740Z,8.40
2019-03-30T18:21:25.277Z,8.40
2019-03-30T18:23:53.755Z,8.40
2019-03-30T18:26:24.034Z,8.30
2019-03-30T18:28:52.673Z,8.30
2019-03-30T18:31:21.456Z,8.40
2019-03-30T18:33:50.858Z,8.50
2019-03-30T18:36:19.403Z,8.50
2019-03-30T18:38:49.320Z,8.60
2019-03-30T18:41:17.959Z,8.70
2019-03-30T18:43:46.451Z,8.60
2019-03-30T18:46:14.921Z,8.50
2019-03-30T18:48:43.520Z,8.30
2019-03-30T18:51:12.089Z,8.10
2019-03-30T18:53:40.762Z,8.00
2019-03-30T18:56:09.305Z,7.90
2019-03-30T18:58:41.904Z,7.80
2019-03-30T19:01:07.938Z,7.70
2019-03-30T19:03:36.508Z,7.60
2019-03-30T19:06:05.070Z,7.50
2019-03-30T19:08:34.646Z,7.30
2019-03-30T19:11:03.363Z,7.20
2019-03-30T19:13:31.843Z,7.10
2019-03-30T19:16:01.703Z,7.00
2019-03-30T19:18:31.670Z,6.80
2019-03-30T19:21:00.703Z,6.70
2019-03-30T19:23:29.266Z,6.70
2019-03-30T19:25:57.790Z,6.60
2019-03-30T19:28:26.250Z,6.60
2019-03-30T19:30:54.700Z,6.50
2019-03-30T19:33:23.169Z,6.40
2019-03-30T19:35:51.639Z,6.30
2019-03-30T19:38:20.104Z,6.30
2019-03-30T19:40:48.630Z,6.30
2019-03-30T19:43:17.127Z,6.40
2019-03-30T19:45:45.615Z,6.60
2019-03-30T19:48:14.090Z,6.80
2019-03-30T19:50:42.641Z,6.80
2019-03-30T19:53:11.078Z,6.70
2019-03-30T19:55:39.542Z,6.50
2019-03-30T19:58:07.986Z,6.20
2019-03-30T20:00:38.783Z,6.10
2019-03-30T20:03:06.818Z,6.00
2019-03-30T20:05:35.260Z,5.90
2019-03-30T20:08:12.182Z,5.90
2019-03-30T20:10:34.095Z,5.90
2019-03-30T20:13:02.533Z,5.80
2019-03-30T20:15:31.163Z,5.80
2019-03-30T20:18:00.541Z,5.70
2019-03-30T20:20:28.980Z,5.70
2019-03-30T20:22:58.349Z,5.60
2019-03-30T20:25:26.805Z,5.40
2019-03-30T20:27:55.250Z,5.40
2019-03-30T20:30:24.552Z,5.40
2019-03-30T20:32:53.193Z,5.40
2019-03-30T20:35:21.727Z,5.40
2019-03-30T20:37:50.158Z,5.40
2019-03-30T20:40:18.641Z,5.20
2019-03-30T20:42:47.236Z,5.20
2019-03-30T20:45:16.143Z,5.10
2019-03-30T20:47:44.685Z,5.20
2019-03-30T20:50:13.658Z,5.20
2019-03-30T20:52:42.211Z,5.20
2019-03-30T20:55:10.811Z,5.20
2019-03-30T20:57:39.268Z,5.00
2019-03-30T21:00:11.701Z,4.90
2019-03-30T21:02:40.207Z,4.80
2019-03-30T21:05:09.470Z,4.60
2019-03-30T21:07:41.433Z,4.50
2019-03-30T21:10:08.630Z,4.50
2019-03-30T21:12:37.164Z,4.40
2019-03-30T21:15:06.513Z,4.30
2019-03-30T21:17:35.242Z,4.20
2019-03-30T21:20:05.870Z,4.20
2019-03-30T21:22:34.443Z,4.10
2019-03-30T21:25:02.960Z,4.20
2019-03-30T21:27:31.437Z,4.20
2019-03-30T21:29:59.933Z,4.10
2019-03-30T21:32:28.416Z,4.10
2019-03-30T21:34:56.902Z,4.10
2019-03-30T21:37:25.386Z,4.00
2019-03-30T21:39:53.851Z,3.90
2019-03-30T21:42:22.302Z,4.00
2019-03-30T21:44:50.744Z,4.00
2019-03-30T21:47:19.229Z,3.90
2019-03-30T21:49:47.672Z,3.80
2019-03-30T21:52:16.111Z,3.90
2019-03-30T21:54:44.590Z,3.80
2019-03-30T21:57:13.053Z,3.80
2019-03-30T21:59:41.543Z,3.80
2019-03-30T22:02:09.980Z,3.80
2019-03-30T22:04:38.457Z,3.60
2019-03-30T22:07:07.643Z,3.40
2019-03-30T22:09:36.273Z,3.30
2019-03-30T22:12:04.719Z,3.10
2019-03-30T22:14:33.245Z,3.10
2019-03-30T22:17:01.712Z,3.00
2019-03-30T22:19:30.241Z,3.00
2019-03-30T22:21:58.718Z,3.10
2019-03-30T22:24:27.282Z,3.00
2019-03-30T22:26:55.731Z,3.10
2019-03-30T22:29:24.231Z,3.10
2019-03-30T22:31:52.659Z,3.00
2019-03-30T22:34:21.142Z,2.90
2019-03-30T22:36:49.682Z,2.80
2019-03-30T22:39:18.115Z,2.80
2019-03-30T22:41:46.586Z,2.70
2019-03-30T22:44:15.109Z,2.60
2019-03-30T22:46:43.539Z,2.60
2019-03-30T22:49:12.001Z,2.60
2019-03-30T22:51:41.417Z,2.60
2019-03-30T22:54:09.873Z,2.70
2019-03-30T22:56:38.311Z,2.70
2019-03-30T22:59:06.867Z,2.70
2019-03-30T23:01:35.402Z,2.70
2019-03-30T23:04:03.918Z,2.70
2019-03-30T23:06:32.427Z,2.60
2019-03-30T23:09:00.892Z,2.40
2019-03-30T23:11:29.349Z,2.30
2019-03-30T23:13:57.820Z,2.30
2019-03-30T23:16:27.282Z,2.20
2019-03-30T23:18:55.802Z,2.30
2019-03-30T23:21:24.315Z,2.30
2019-03-30T23:23:53.795Z,2.30
2019-03-30T23:26:22.379Z,2.20
2019-03-30T23:28:50.827Z,2.30
2019-03-30T23:31:19.295Z,2.30
2019-03-30T23:33:47.817Z,2.30
2019-03-30T23:36:16.295Z,2.40
2019-03-30T23:38:44.724Z,2.40
2019-03-30T23:41:13.201Z,2.40
2019-03-30T23:43:41.662Z,2.30
2019-03-30T23:46:10.208Z,2.30
2019-03-30T23:48:38.706Z,2.30
2019-03-30T23:51:07.220Z,2.30
2019-03-30T23:53:35.755Z,2.20
2019-03-30T23:56:07.269Z,2.20
2019-03-30T23:58:35.728Z,2.10
